Airfield :
LOGIN :

Register | Disclaimer

   EN    FR    IT 

 










Legend :    VFR   Marginal VFR   IFR   Intensive IFR   Very Intensive IFR
Visi :
Ceiling :
>= 8 km
>= 3000ft
5 to 8 km
1000 to 3000 ft
1500m to 5 km
500 to 1000 ft
800 to 1500m
200 to 500 ft
< 800m
< 200 ft
Symbols :   Thunderstorms  Fog  Heavy snow  Heavy precipitations  Wind > 20 kt
SIGMETs :     Misc.  Thunderstorms  Icing  Turbulence  Mountain Waves  Volcanic Ashes







- Airport Elevation : 31 ft
- IATA code : TOS


ENTC - Tromsø

CURRENT METAR :
  • 271150Z 23012KT 9999 -SHRA BKN031 07/04 Q1011 TEMPO 28020G30KT RMK WIND 2600FT 25028G42KT

EXPIRED METARs :
  • 271120Z 23017KT 200V270 9999 -SHRA FEW026 SCT032 BKN044 08/02 Q1011 TEMPO 28020G30KT RMK WIND 2600FT 26029G42KT
  • 271050Z 23015KT 9999 BKN044 09/02 Q1011 TEMPO 28020G30KT RMK WIND 2600FT 23027KT
  • 271020Z 23013KT 9999 FEW027 BKN044 10/02 Q1011 TEMPO 28020G30KT RMK WIND 2600FT 24026KT
  • 270950Z 24012KT 9999 FEW027 BKN044 10/02 Q1012 TEMPO 28020G30KT RMK WIND 2600FT 25025KT
  • 270920Z 24011KT 9999 FEW021 BKN035 09/01 Q1012 TEMPO 28020G30KT RMK WIND 2600FT 25024KT

TAF COR TAF ENTC
Valid from the 27 at 12:00 until the 28 at 12:00 UTC


2712/2812 23012KT 9999 FEW015 BKN030
TEMPO 2712/2812 27020G30KT SHRA BKN012TCU
No reported NOTAMs for that airfield.



MET'MAP, your aeronautical weather chart ! - Copyright ORBIFLY December 2007 - Disclaimer

ORBIFLY MET'MAP TEAM :

Programming & Development : Alexandra Zaïnal
Concept & Development : Baudouin d'Aumeries
Co-Development & Prog : Marc-Olivier Méhu
Technical & hardware support : Manuel Goepfert

Contact : metmap@orbifly.com




SOURCES & CREDITS :

   NOAA